Time;durP1;ratioP1;P1;durP2;ratioP2;P2;SDS_P1;SDS_P2;PMS_P1;PMS_P2;Temp;Humidity;BMP_temperature;BMP_pressure;BME280_temperature;BME280_humidity;BME280_pressure;Samples;Min_cycle;Max_cycle;Signal;HPM_P1;HPM_P2
2023/01/23 00:02:02;;;;;;;62.10;33.50;;;;;;;2.17;83.65;101935.89;129690;1271;114706;-65
2023/01/23 00:05:05;;;;;;;71.60;34.30;;;;;;;2.12;83.79;101930.55;129948;1259;114833;-64
2023/01/23 00:08:07;;;;;;;67.60;34.30;;;;;;;2.14;84.02;101936.92;129760;1260;114823;-64
2023/01/23 00:11:15;;;;;;;78.10;36.80;;;;;;;2.16;84.05;101942.92;129948;1277;114743;-64
2023/01/23 00:14:18;;;;;;;67.30;35.70;;;;;;;2.19;84.09;101947.02;129901;1277;115453;-64
2023/01/23 00:17:20;;;;;;;71.00;33.90;;;;;;;2.18;83.78;101950.53;129969;1278;114886;-65
2023/01/23 00:20:22;;;;;;;64.90;32.10;;;;;;;2.15;83.94;101952.63;130062;1254;115256;-65
2023/01/23 00:23:24;;;;;;;63.40;30.70;;;;;;;2.14;83.97;101951.73;130007;1259;114750;-64
2023/01/23 00:26:28;;;;;;;64.60;33.10;;;;;;;2.11;83.91;101950.29;130037;1259;114771;-64
2023/01/23 00:29:30;;;;;;;59.90;30.10;;;;;;;2.09;83.88;101953.60;130035;1260;114740;-66
2023/01/23 00:32:33;;;;;;;62.40;29.20;;;;;;;2.11;84.00;101949.75;129948;1277;115318;-65
2023/01/23 00:35:35;;;;;;;64.80;31.20;;;;;;;2.12;83.81;101948.17;130064;1260;115596;-65
2023/01/23 00:38:37;;;;;;;65.80;32.80;;;;;;;2.10;83.91;101940.58;129616;1265;128406;-65
2023/01/23 00:41:40;;;;;;;69.00;34.70;;;;;;;2.09;83.97;101942.66;129810;1259;114721;-66
2023/01/23 00:44:42;;;;;;;72.70;33.30;;;;;;;2.09;83.97;101948.14;130010;1260;114761;-65
2023/01/23 00:47:44;;;;;;;69.90;34.80;;;;;;;2.11;84.32;101953.63;129676;1265;115439;-65
2023/01/23 00:50:47;;;;;;;68.20;33.90;;;;;;;2.14;84.10;101960.01;129856;1259;114736;-66
2023/01/23 00:53:49;;;;;;;78.40;36.00;;;;;;;2.12;84.02;101963.86;129670;1278;114766;-70
2023/01/23 00:56:52;;;;;;;71.70;32.10;;;;;;;2.11;84.21;101971.42;129722;1263;114738;-68
2023/01/23 00:59:54;;;;;;;68.40;32.20;;;;;;;2.13;84.12;101971.98;129837;1278;128871;-68
2023/01/23 01:02:56;;;;;;;77.80;35.40;;;;;;;2.15;84.06;101973.24;129952;1278;115225;-66
2023/01/23 01:05:59;;;;;;;72.00;35.00;;;;;;;2.17;84.26;101970.97;130078;1259;114821;-68
2023/01/23 01:09:02;;;;;;;77.80;36.20;;;;;;;2.16;84.05;101974.84;130079;1268;115446;-66
2023/01/23 01:12:05;;;;;;;84.20;37.30;;;;;;;2.12;84.13;101983.08;129991;1278;114839;-65
2023/01/23 01:15:09;;;;;;;74.10;33.90;;;;;;;2.13;84.24;101986.80;129968;1278;114642;-65
2023/01/23 01:18:11;;;;;;;76.90;34.70;;;;;;;2.13;84.23;101983.79;129856;1278;115093;-65
2023/01/23 01:21:15;;;;;;;91.50;38.00;;;;;;;2.06;84.07;101980.01;129883;1278;115199;-65
2023/01/23 01:24:17;;;;;;;79.90;33.50;;;;;;;2.01;83.86;101979.75;129824;1259;114746;-65
2023/01/23 01:27:20;;;;;;;85.40;35.40;;;;;;;1.96;84.03;101983.05;129848;1257;114767;-62
2023/01/23 01:30:25;;;;;;;81.20;34.30;;;;;;;1.94;84.10;101983.20;129823;1256;114830;-64
2023/01/23 01:33:28;;;;;;;84.50;36.90;;;;;;;1.92;84.21;101981.93;129850;1260;114822;-63
2023/01/23 01:36:31;;;;;;;93.60;40.60;;;;;;;1.93;84.05;101982.48;129891;1260;114769;-64
2023/01/23 01:39:33;;;;;;;87.40;37.60;;;;;;;1.96;84.35;101988.17;129922;1258;114706;-63
2023/01/23 01:42:40;;;;;;;83.90;33.70;;;;;;;1.98;84.40;101992.42;130046;1260;115382;-63
2023/01/23 01:46:01;;;;;;;83.80;37.60;;;;;;;1.95;84.20;101989.91;129780;1260;114961;-63
2023/01/23 01:49:18;;;;;;;81.60;35.60;;;;;;;1.96;84.38;101986.39;129969;1266;114685;-63
2023/01/23 01:52:21;;;;;;;88.30;38.60;;;;;;;1.94;84.35;101995.70;129605;1271;114904;-63
2023/01/23 01:55:24;;;;;;;94.00;38.00;;;;;;;1.92;84.42;102005.38;130036;1277;114734;-63
2023/01/23 01:58:27;;;;;;;79.80;32.70;;;;;;;1.93;84.21;102008.02;129948;1260;114789;-65
2023/01/23 02:01:30;;;;;;;84.80;33.90;;;;;;;1.90;84.36;102013.98;129973;1258;114725;-63
2023/01/23 02:04:39;;;;;;;86.90;34.70;;;;;;;1.92;84.34;102024.04;129712;1264;114740;-64
2023/01/23 02:08:03;;;;;;;98.00;38.20;;;;;;;1.95;84.78;102032.20;130081;1277;114738;-64
2023/01/23 02:11:06;;;;;;;80.00;35.60;;;;;;;1.98;84.47;102037.34;129912;1277;128613;-66
2023/01/23 02:14:09;;;;;;;85.60;36.60;;;;;;;1.96;84.33;102041.91;130066;1257;114764;-64
2023/01/23 02:17:12;;;;;;;91.20;37.80;;;;;;;1.99;84.68;102039.64;129986;1260;114826;-64
2023/01/23 02:20:24;;;;;;;87.40;36.20;;;;;;;2.00;84.49;102045.64;130047;1275;115334;-65
2023/01/23 02:23:45;;;;;;;84.30;37.00;;;;;;;1.96;84.13;102047.89;129892;1278;114830;-64
2023/01/23 02:26:47;;;;;;;81.20;35.20;;;;;;;1.92;84.31;102046.59;129819;1278;114718;-63
2023/01/23 02:29:51;;;;;;;82.20;34.30;;;;;;;1.88;84.33;102047.42;129865;1260;114787;-63
2023/01/23 02:32:53;;;;;;;82.50;33.60;;;;;;;1.87;84.44;102046.88;129895;1260;115381;-64
2023/01/23 02:36:00;;;;;;;95.10;38.30;;;;;;;1.88;84.55;102050.94;129809;1259;114746;-65
2023/01/23 02:39:14;;;;;;;94.80;38.30;;;;;;;1.88;84.32;102059.23;129688;1263;115503;-64
2023/01/23 02:42:16;;;;;;;88.20;36.20;;;;;;;1.89;84.60;102060.83;129808;1267;114731;-65
2023/01/23 02:45:19;;;;;;;93.60;38.20;;;;;;;1.90;84.67;102066.13;129890;1278;114752;-65
2023/01/23 02:48:22;;;;;;;89.90;35.50;;;;;;;1.88;84.50;102067.86;129909;1268;114749;-65
2023/01/23 02:51:24;;;;;;;89.70;34.60;;;;;;;1.86;84.38;102068.89;129784;1278;114747;-63
2023/01/23 02:54:27;;;;;;;94.20;38.70;;;;;;;1.84;84.62;102066.73;129889;1260;115343;-65
2023/01/23 02:57:29;;;;;;;88.50;36.30;;;;;;;1.82;84.74;102069.72;129918;1261;114824;-65
2023/01/23 03:00:31;;;;;;;76.50;33.80;;;;;;;1.85;84.91;102065.87;129597;1264;114789;-64
2023/01/23 03:03:34;;;;;;;86.70;35.20;;;;;;;1.88;84.74;102071.02;129874;1265;114734;-64
2023/01/23 03:06:37;;;;;;;90.10;35.50;;;;;;;1.88;84.80;102077.73;129712;1279;128828;-65
2023/01/23 03:09:40;;;;;;;101.60;38.80;;;;;;;1.87;84.68;102080.35;129809;1260;114888;-64
2023/01/23 03:12:44;;;;;;;98.10;40.30;;;;;;;1.89;84.81;102081.97;129699;1258;115179;-66
2023/01/23 03:15:51;;;;;;;98.20;39.80;;;;;;;1.92;84.81;102076.72;129571;1274;114948;-66
2023/01/23 03:18:56;;;;;;;89.50;37.40;;;;;;;1.93;84.82;102073.92;129717;1264;114716;-63
2023/01/23 03:21:58;;;;;;;94.70;39.30;;;;;;;1.93;84.79;102067.77;129479;1278;128784;-65
2023/01/23 03:25:01;;;;;;;85.90;36.20;;;;;;;1.95;84.95;102070.59;129616;1263;115211;-65
2023/01/23 03:30:11;;;;;;;83.70;36.00;;;;;;;1.94;84.56;102070.59;129709;1260;114787;-64
2023/01/23 03:31:28;;;;;;;97.50;39.20;;;;;;;1.98;84.69;102073.11;129664;1269;114663;-63
2023/01/23 03:34:31;;;;;;;95.70;36.90;;;;;;;2.04;84.71;102073.73;129613;1270;114860;-64
2023/01/23 03:37:33;;;;;;;89.00;35.30;;;;;;;2.09;84.71;102083.14;130076;1260;114728;-64
2023/01/23 03:43:57;;;;;;;99.00;40.90;;;;;;;2.09;84.85;102089.30;129646;1270;115247;-65
2023/01/23 03:46:59;;;;;;;97.20;40.60;;;;;;;2.11;84.65;102085.46;129743;1260;114748;-64
2023/01/23 03:50:02;;;;;;;87.60;36.90;;;;;;;2.09;84.42;102081.55;129712;1260;114796;-64
2023/01/23 03:53:05;;;;;;;93.40;37.20;;;;;;;2.07;84.42;102079.94;129877;1260;114703;-63
2023/01/23 03:56:07;;;;;;;93.10;37.50;;;;;;;2.05;84.21;102085.04;129859;1261;114754;-65
2023/01/23 03:59:10;;;;;;;90.90;38.70;;;;;;;2.07;84.50;102095.98;129889;1277;114744;-64
2023/01/23 04:02:12;;;;;;;89.50;36.20;;;;;;;2.09;84.54;102099.70;129978;1277;114806;-64
2023/01/23 04:05:14;;;;;;;91.30;37.70;;;;;;;2.07;84.43;102093.52;130073;1270;114735;-65
2023/01/23 04:08:17;;;;;;;87.70;36.90;;;;;;;2.06;84.31;102093.48;130053;1257;115176;-65
2023/01/23 04:11:19;;;;;;;90.10;36.60;;;;;;;2.04;84.42;102090.65;129946;1267;114776;-64
2023/01/23 04:14:23;;;;;;;91.50;38.00;;;;;;;2.01;84.16;102089.02;130075;1278;115164;-64
2023/01/23 04:17:25;;;;;;;79.10;35.40;;;;;;;1.97;84.29;102081.03;130104;1277;114792;-64
2023/01/23 04:20:31;;;;;;;94.60;40.20;;;;;;;1.93;84.22;102087.31;130116;1277;114760;-64
2023/01/23 04:23:34;;;;;;;91.40;38.30;;;;;;;1.88;84.32;102086.17;129649;1277;115301;-64
2023/01/23 04:26:36;;;;;;;90.50;37.60;;;;;;;1.85;84.34;102087.72;129985;1260;114794;-66
2023/01/23 04:29:38;;;;;;;89.60;39.70;;;;;;;1.84;84.38;102084.00;129863;1257;115208;-64
2023/01/23 04:32:41;;;;;;;90.50;39.90;;;;;;;1.85;84.71;102084.90;129910;1278;115372;-64
2023/01/23 04:35:53;;;;;;;92.00;36.90;;;;;;;1.88;84.70;102084.59;129905;1257;115356;-65
2023/01/23 04:38:57;;;;;;;84.20;35.40;;;;;;;1.90;84.58;102082.86;129896;1270;128173;-64
2023/01/23 04:41:59;;;;;;;92.50;40.10;;;;;;;1.93;84.56;102084.14;129619;1263;115345;-65
2023/01/23 04:45:01;;;;;;;80.20;34.10;;;;;;;1.93;84.65;102083.27;129846;1277;115057;-65
2023/01/23 04:48:04;;;;;;;88.70;38.80;;;;;;;1.90;84.53;102086.02;130028;1260;115256;-64
2023/01/23 04:51:06;;;;;;;107.30;39.60;;;;;;;1.86;84.55;102090.37;129966;1277;114785;-65
2023/01/23 04:54:09;;;;;;;91.50;36.20;;;;;;;1.80;84.76;102094.00;130059;1263;114799;-63
2023/01/23 04:57:12;;;;;;;82.30;33.80;;;;;;;1.79;84.56;102096.95;129906;1254;114737;-65
2023/01/23 05:00:15;;;;;;;79.70;33.30;;;;;;;1.78;84.81;102103.83;130073;1260;115442;-66
2023/01/23 05:03:17;;;;;;;87.20;36.40;;;;;;;1.78;84.81;102111.91;129677;1270;115196;-65
2023/01/23 05:06:20;;;;;;;89.20;37.80;;;;;;;1.79;84.65;102109.30;129904;1258;114729;-65
2023/01/23 05:09:23;;;;;;;87.80;37.50;;;;;;;1.81;84.82;102110.21;130008;1277;114724;-66
2023/01/23 05:12:25;;;;;;;86.10;37.80;;;;;;;1.81;84.91;102111.81;130071;1254;114796;-66
2023/01/23 05:15:30;;;;;;;86.50;37.00;;;;;;;1.84;84.92;102122.76;129955;1267;114747;-66
2023/01/23 05:18:33;;;;;;;87.50;37.40;;;;;;;1.82;84.77;102123.79;129908;1277;128848;-67
2023/01/23 05:21:35;;;;;;;88.20;41.10;;;;;;;1.81;84.72;102130.48;129712;1257;115483;-64
2023/01/23 05:24:37;;;;;;;99.90;39.40;;;;;;;1.78;84.50;102130.23;129934;1261;114757;-64
2023/01/23 05:27:40;;;;;;;81.30;36.20;;;;;;;1.77;84.86;102133.92;129865;1260;115243;-65
2023/01/23 05:30:42;;;;;;;136.20;63.80;;;;;;;1.76;84.67;102138.85;130117;1257;114769;-65
2023/01/23 05:33:45;;;;;;;80.50;36.70;;;;;;;1.74;84.68;102145.67;129641;1277;114910;-65
2023/01/23 05:36:47;;;;;;;106.30;50.50;;;;;;;1.77;84.85;102148.19;129549;1261;115008;-65
2023/01/23 05:39:49;;;;;;;102.30;42.70;;;;;;;1.81;84.77;102155.14;129440;1273;128012;-64
2023/01/23 05:42:52;;;;;;;80.60;35.90;;;;;;;1.84;84.81;102163.27;129520;1260;114985;-64
2023/01/23 05:45:54;;;;;;;84.60;38.60;;;;;;;1.83;84.59;102167.14;129544;1264;114835;-65
2023/01/23 05:48:56;;;;;;;89.40;40.70;;;;;;;1.82;84.66;102169.08;129452;1264;114859;-65
2023/01/23 05:51:59;;;;;;;81.40;36.60;;;;;;;1.84;84.71;102168.91;129790;1273;114828;-65
2023/01/23 05:55:01;;;;;;;84.40;36.60;;;;;;;1.82;84.69;102172.58;129942;1277;114758;-64
2023/01/23 05:58:04;;;;;;;77.20;34.50;;;;;;;1.81;84.75;102172.77;129936;1255;114737;-65
2023/01/23 06:01:06;;;;;;;78.90;34.50;;;;;;;1.81;84.31;102170.29;129671;1261;115448;-65
2023/01/23 06:04:09;;;;;;;84.40;38.70;;;;;;;1.80;84.59;102170.98;129581;1278;115258;-65
2023/01/23 06:07:16;;;;;;;66.10;32.00;;;;;;;1.80;84.80;102179.96;130249;1258;114756;-66
2023/01/23 06:10:19;;;;;;;75.90;36.50;;;;;;;1.80;84.60;102186.65;130094;1278;115093;-65
2023/01/23 06:13:21;;;;;;;83.40;37.40;;;;;;;1.84;84.86;102191.81;129868;1266;114926;-64
2023/01/23 06:16:23;;;;;;;82.50;39.00;;;;;;;1.87;84.74;102198.56;129938;1257;114760;-64
2023/01/23 06:19:26;;;;;;;81.60;39.10;;;;;;;1.89;84.71;102197.39;129743;1260;128894;-64
2023/01/23 06:22:28;;;;;;;72.10;33.10;;;;;;;1.90;84.55;102192.81;129804;1260;114785;-65
2023/01/23 06:25:30;;;;;;;69.80;32.40;;;;;;;1.90;84.73;102197.22;129789;1261;114821;-64
2023/01/23 06:28:33;;;;;;;74.50;34.60;;;;;;;1.92;84.47;102197.41;129920;1259;115305;-65
2023/01/23 06:31:35;;;;;;;74.00;34.50;;;;;;;1.92;84.35;102203.58;129819;1259;114822;-66
2023/01/23 06:34:38;;;;;;;80.40;37.00;;;;;;;1.97;84.73;102211.95;129866;1278;114725;-65
2023/01/23 06:37:41;;;;;;;73.10;34.70;;;;;;;2.03;84.73;102218.58;129597;1278;114783;-63
2023/01/23 06:40:44;;;;;;;71.80;35.00;;;;;;;2.08;84.79;102217.79;129847;1278;114827;-66
2023/01/23 06:43:46;;;;;;;76.70;36.70;;;;;;;2.12;84.62;102224.73;129851;1278;114774;-65
2023/01/23 06:46:52;;;;;;;76.70;37.00;;;;;;;2.12;84.49;102226.48;129841;1260;114834;-64
2023/01/23 06:49:54;;;;;;;;;;;;;;;2.11;84.35;102234.75;129611;1260;116394;-65
2023/01/23 06:52:56;;;;;;;62.90;30.60;;;;;;;2.09;84.30;102242.11;129829;1257;114830;-65
2023/01/23 06:56:04;;;;;;;69.60;31.80;;;;;;;2.11;84.43;102248.51;129824;1258;114794;-65
2023/01/23 06:59:06;;;;;;;65.00;31.20;;;;;;;2.16;84.28;102252.63;129884;1261;128887;-64
2023/01/23 07:02:12;;;;;;;66.10;32.70;;;;;;;2.16;84.30;102261.80;129835;1260;114856;-64
2023/01/23 07:05:15;;;;;;;74.00;36.60;;;;;;;2.17;84.41;102265.86;129850;1254;114855;-64
2023/01/23 07:08:17;;;;;;;74.00;35.80;;;;;;;2.21;84.36;102266.11;130009;1254;114732;-65
2023/01/23 07:11:20;;;;;;;72.10;35.60;;;;;;;2.24;84.44;102267.75;130041;1277;114743;-64
2023/01/23 07:14:22;;;;;;;77.70;39.20;;;;;;;2.25;84.38;102267.23;130119;1277;114767;-64
2023/01/23 07:17:24;;;;;;;77.80;40.30;;;;;;;2.25;84.16;102265.65;129791;1277;127131;-63
2023/01/23 07:20:27;;;;;;;76.40;36.10;;;;;;;2.24;84.28;102264.40;129963;1258;114627;-63
2023/01/23 07:23:29;;;;;;;76.30;35.90;;;;;;;2.23;84.24;102264.92;130148;1254;115433;-66
2023/01/23 07:26:32;;;;;;;72.80;35.00;;;;;;;2.27;84.34;102269.75;130160;1257;114784;-64
2023/01/23 07:29:34;;;;;;;75.90;35.80;;;;;;;2.29;84.06;102273.13;129873;1257;114833;-64
2023/01/23 07:32:36;;;;;;;72.30;36.10;;;;;;;2.30;84.22;102278.79;130022;1277;114791;-63
2023/01/23 07:35:39;;;;;;;70.50;34.00;;;;;;;2.35;84.07;102277.64;130023;1273;115355;-64
2023/01/23 07:38:42;;;;;;;74.50;36.00;;;;;;;2.35;84.24;102282.21;130087;1277;114709;-64
2023/01/23 07:41:44;;;;;;;74.50;37.50;;;;;;;2.38;84.14;102280.33;129825;1254;304414;-64
2023/01/23 07:44:47;;;;;;;71.30;35.00;;;;;;;2.40;84.02;102283.17;130014;1257;114734;-64
2023/01/23 07:47:49;;;;;;;67.80;34.40;;;;;;;2.45;84.19;102287.14;130263;1277;114745;-61
2023/01/23 07:50:52;;;;;;;62.10;30.50;;;;;;;2.47;83.95;102287.52;130046;1258;114759;-63
2023/01/23 07:53:55;;;;;;;62.70;30.10;;;;;;;2.43;83.54;102289.93;130037;1259;114768;-62
2023/01/23 07:56:57;;;;;;;61.50;31.30;;;;;;;2.42;83.30;102293.79;129612;1257;127579;-60
2023/01/23 08:00:00;;;;;;;64.40;32.40;;;;;;;2.43;83.67;102295.21;130013;1258;114833;-61
2023/01/23 08:03:02;;;;;;;67.70;34.30;;;;;;;2.45;83.54;102295.77;129834;1259;114785;-61
2023/01/23 08:06:05;;;;;;;83.50;40.80;;;;;;;2.44;83.54;102299.46;129942;1255;114696;-62
2023/01/23 08:09:07;;;;;;;110.00;51.00;;;;;;;2.45;83.46;102297.18;129946;1259;115427;-60
2023/01/23 08:12:11;;;;;;;104.40;45.10;;;;;;;2.46;83.68;102296.69;130048;1278;114754;-62
2023/01/23 08:15:14;;;;;;;90.60;43.80;;;;;;;2.50;83.88;102298.67;129637;1278;114837;-61
2023/01/23 08:18:16;;;;;;;77.90;38.40;;;;;;;2.52;83.76;102297.13;129808;1259;114795;-60
2023/01/23 08:21:19;;;;;;;72.80;35.10;;;;;;;2.50;83.47;102301.85;129671;1279;114751;-61
2023/01/23 08:24:21;;;;;;;65.60;33.20;;;;;;;2.46;83.34;102301.96;129612;1261;114737;-60
2023/01/23 08:27:24;;;;;;;65.10;31.80;;;;;;;2.42;83.19;102301.02;129857;1257;115031;-61
2023/01/23 08:30:26;;;;;;;68.90;34.10;;;;;;;2.40;83.09;102302.92;129731;1260;114760;-61
2023/01/23 08:33:29;;;;;;;66.90;34.40;;;;;;;2.40;83.31;102307.67;129505;1278;114837;-60
2023/01/23 08:36:32;;;;;;;66.00;33.00;;;;;;;2.42;83.33;102311.05;129584;1275;115233;-61
2023/01/23 08:39:34;;;;;;;68.20;32.90;;;;;;;2.42;83.35;102309.48;129749;1256;114847;-61
2023/01/23 08:42:37;;;;;;;65.40;31.80;;;;;;;2.41;83.29;102309.11;129766;1261;115185;-61
2023/01/23 08:45:40;;;;;;;67.70;33.80;;;;;;;2.40;83.45;102304.52;129819;1256;114773;-62
2023/01/23 08:48:43;;;;;;;69.50;33.50;;;;;;;2.40;83.38;102308.92;129891;1268;115204;-63
2023/01/23 08:51:45;;;;;;;69.10;33.20;;;;;;;2.41;83.44;102309.64;129913;1270;114824;-62
2023/01/23 08:54:48;;;;;;;69.50;32.40;;;;;;;2.37;83.37;102314.70;129944;1270;114754;-62
2023/01/23 08:57:50;;;;;;;72.90;35.80;;;;;;;2.35;83.13;102318.36;129377;1260;115009;-61
2023/01/23 09:00:53;;;;;;;72.80;32.70;;;;;;;2.33;83.29;102317.98;129872;1257;115492;-61
2023/01/23 09:03:57;;;;;;;75.40;26.90;;;;;;;2.40;83.55;102317.38;129714;1262;116431;-63
2023/01/23 09:06:59;;;;;;;65.20;31.80;;;;;;;2.45;83.37;102314.64;130042;1254;114677;-63
2023/01/23 09:10:04;;;;;;;69.80;34.60;;;;;;;2.43;83.15;102321.85;129968;1257;114769;-61
2023/01/23 09:13:06;;;;;;;71.60;35.90;;;;;;;2.46;83.42;102331.07;129802;1272;115353;-62
2023/01/23 09:16:09;;;;;;;71.10;34.70;;;;;;;2.49;83.38;102334.11;130019;1257;114808;-62
2023/01/23 09:19:11;;;;;;;76.10;35.00;;;;;;;2.47;82.97;102331.79;130121;1257;114712;-62
2023/01/23 09:22:15;;;;;;;77.90;37.90;;;;;;;2.48;83.23;102331.98;129996;1273;114715;-62
2023/01/23 09:25:17;;;;;;;77.40;34.40;;;;;;;2.49;83.35;102335.17;129953;1257;115244;-62
2023/01/23 09:28:20;;;;;;;73.20;32.60;;;;;;;2.52;83.27;102338.39;129896;1260;114713;-61
2023/01/23 09:31:22;;;;;;;78.30;34.40;;;;;;;2.56;83.19;102334.59;129955;1257;115397;-61
2023/01/23 09:34:25;;;;;;;78.10;38.20;;;;;;;2.60;83.07;102332.70;129959;1253;114757;-62
2023/01/23 09:40:57;;;;;;;85.00;37.80;;;;;;;2.65;83.00;102331.02;129934;1277;114826;-63
2023/01/23 09:44:54;;;;;;;81.60;37.30;;;;;;;2.66;82.96;102329.63;129674;1259;114913;-61
2023/01/23 09:48:15;;;;;;;81.90;34.80;;;;;;;2.66;82.77;102329.45;129214;1260;128767;-62
2023/01/23 09:51:20;;;;;;;75.50;33.80;;;;;;;2.60;82.63;102327.94;129226;1265;116576;-61
2023/01/23 09:54:43;;;;;;;86.20;44.70;;;;;;;2.56;82.56;102335.11;129324;1261;114867;-62
2023/01/23 09:57:56;;;;;;;106.40;49.40;;;;;;;2.52;82.74;102334.17;129107;1261;114854;-62
2023/01/23 10:00:58;;;;;;;95.80;47.70;;;;;;;2.51;82.78;102338.37;129143;1267;115383;-63
2023/01/23 10:04:01;;;;;;;96.10;45.70;;;;;;;2.55;82.78;102333.16;129284;1261;114869;-62
2023/01/23 10:07:06;;;;;;;80.20;36.80;;;;;;;2.55;82.86;102333.70;129394;1263;115114;-61
2023/01/23 10:10:54;;;;;;;96.10;41.90;;;;;;;2.54;82.82;102325.20;129175;1262;114802;-61
2023/01/23 10:13:56;;;;;;;91.90;38.00;;;;;;;2.60;82.87;102321.95;128598;1266;114814;-62
2023/01/23 10:17:43;;;;;;;86.70;38.20;;;;;;;2.60;82.60;102324.95;128816;1288;114811;-62
2023/01/23 10:21:20;;;;;;;85.30;38.60;;;;;;;2.60;82.66;102325.65;128584;1277;129985;-63
2023/01/23 10:24:47;;;;;;;84.20;41.70;;;;;;;2.59;82.69;102322.64;128744;1277;115379;-61
2023/01/23 10:27:50;;;;;;;89.80;40.80;;;;;;;2.60;82.57;102319.30;128991;1271;114767;-64
2023/01/23 10:30:58;;;;;;;89.30;39.80;;;;;;;2.61;82.81;102318.80;128846;1265;116505;-63
2023/01/23 10:34:10;;;;;;;95.70;41.00;;;;;;;2.65;82.84;102316.91;128697;1274;114858;-62
2023/01/23 10:37:20;;;;;;;91.10;38.50;;;;;;;2.69;82.73;102316.43;129009;1271;128883;-64
2023/01/23 10:43:55;;;;;;;95.30;39.10;;;;;;;2.76;82.65;102311.25;128975;1268;114759;-63
2023/01/23 10:47:02;;;;;;;90.90;38.80;;;;;;;2.78;82.63;102311.13;128822;1271;114790;-61
2023/01/23 10:50:05;;;;;;;91.30;41.20;;;;;;;2.81;82.51;102316.27;129009;1283;114883;-64
2023/01/23 10:53:16;;;;;;;98.40;40.30;;;;;;;2.80;82.46;102312.04;129140;1276;114914;-60
2023/01/23 10:56:19;;;;;;;96.10;41.30;;;;;;;2.81;82.58;102310.11;129103;1264;115224;-61
2023/01/23 10:59:34;;;;;;;87.80;38.80;;;;;;;2.87;82.86;102311.77;129816;1273;114770;-61
2023/01/23 11:02:39;;;;;;;91.00;42.50;;;;;;;2.93;82.70;102309.39;129601;1270;114936;-62
2023/01/23 11:05:44;;;;;;;100.80;44.00;;;;;;;2.91;82.40;102311.66;129546;1261;114817;-64
2023/01/23 11:08:54;;;;;;;97.50;42.60;;;;;;;2.88;82.33;102310.03;129350;1261;128730;-62
2023/01/23 11:12:02;;;;;;;89.30;40.40;;;;;;;2.90;82.39;102306.69;131603;1259;115291;-64
2023/01/23 11:15:27;;;;;;;87.30;40.60;;;;;;;2.92;82.16;102306.55;129601;1260;115100;-63
2023/01/23 11:18:43;;;;;;;90.10;41.40;;;;;;;2.92;82.29;102306.20;129651;1264;114916;-63
2023/01/23 11:21:50;;;;;;;;;;;;;;;2.90;82.19;102300.00;129919;1259;115348;-62
2023/01/23 11:24:52;;;;;;;91.90;40.00;;;;;;;2.91;82.35;102297.71;129597;1278;128017;-63
2023/01/23 11:28:02;;;;;;;96.30;43.80;;;;;;;2.90;82.18;102299.48;129848;1275;114798;-63
2023/01/23 11:31:25;;;;;;;91.70;43.00;;;;;;;2.93;82.58;102296.85;130053;1256;114725;-62
2023/01/23 11:34:35;;;;;;;89.70;42.10;;;;;;;2.99;82.53;102293.93;129666;1261;114761;-63
2023/01/23 11:37:39;;;;;;;100.50;45.10;;;;;;;3.00;82.43;102294.31;129625;1278;114808;-63
2023/01/23 11:40:41;;;;;;;91.50;39.60;;;;;;;2.98;82.27;102290.77;129821;1278;129965;-61
2023/01/23 11:43:44;;;;;;;82.20;36.30;;;;;;;2.95;81.95;102296.17;129865;1259;115203;-64
2023/01/23 11:47:12;;;;;;;83.10;37.90;;;;;;;2.91;81.89;102293.13;129971;1256;114711;-64
2023/01/23 11:50:35;;;;;;;87.10;40.80;;;;;;;2.95;82.24;102288.77;129716;1263;114948;-64
2023/01/23 11:54:06;;;;;;;86.10;39.60;;;;;;;2.97;82.19;102294.64;129708;1264;114732;-62
2023/01/23 11:57:37;;;;;;;90.10;40.40;;;;;;;2.94;82.07;102295.11;129456;1276;128095;-64
2023/01/23 12:01:00;;;;;;;106.00;49.30;;;;;;;2.92;82.00;102292.08;129225;1262;115465;-65
2023/01/23 12:04:19;;;;;;;96.60;43.60;;;;;;;2.95;82.22;102287.37;129227;1267;114852;-62
2023/01/23 12:07:24;;;;;;;90.60;40.00;;;;;;;2.99;82.17;102286.52;129221;1285;114898;-62
2023/01/23 12:10:59;;;;;;;91.50;39.30;;;;;;;2.97;82.12;102281.74;129161;1267;115135;-62
2023/01/23 12:14:13;;;;;;;83.90;36.50;;;;;;;2.93;81.74;102280.45;128998;1262;128023;-62
2023/01/23 12:17:27;;;;;;;90.70;38.80;;;;;;;2.93;82.12;102276.04;129077;1267;115225;-67
2023/01/23 12:21:10;;;;;;;79.50;38.20;;;;;;;2.95;81.92;102278.90;129425;1268;114927;-67
2023/01/23 12:24:16;;;;;;;93.60;44.10;;;;;;;2.91;81.85;102274.23;129546;1285;114925;-68
2023/01/23 12:27:20;;;;;;;110.20;47.20;;;;;;;2.93;82.18;102275.14;129443;1267;114764;-65
2023/01/23 12:30:37;;;;;;;91.30;39.30;;;;;;;2.95;82.19;102273.95;129256;1268;127912;-65
2023/01/23 12:33:55;;;;;;;93.00;42.10;;;;;;;2.92;81.93;102274.95;129495;1264;114877;-65
2023/01/23 12:37:18;;;;;;;85.00;40.20;;;;;;;2.89;81.96;102275.45;129582;1266;114962;-65
2023/01/23 12:40:29;;;;;;;90.60;41.10;;;;;;;2.86;82.04;102274.52;129891;1259;114805;-65
2023/01/23 12:44:11;;;;;;;85.10;38.80;;;;;;;2.83;82.13;102270.26;130168;1256;115404;-65
2023/01/23 12:47:19;;;;;;;73.90;35.90;;;;;;;2.84;82.20;102271.33;129804;1278;128646;-66
2023/01/23 12:50:34;;;;;;;88.00;38.10;;;;;;;2.85;82.04;102271.69;130142;1256;115266;-65
2023/01/23 12:53:38;;;;;;;90.80;46.20;;;;;;;2.87;82.18;102273.13;129521;1259;115586;-66
2023/01/23 12:56:41;;;;;;;63.50;30.20;;;;;;;2.87;82.12;102274.20;129924;1261;114933;-66
2023/01/23 12:59:49;;;;;;;93.80;43.80;;;;;;;2.82;81.86;102276.08;129579;1276;114789;-65
2023/01/23 13:03:29;;;;;;;79.00;38.20;;;;;;;2.78;82.00;102272.46;129651;1260;127959;-66
2023/01/23 13:06:40;;;;;;;99.10;46.40;;;;;;;2.75;82.09;102275.77;129853;1279;115710;-65
2023/01/23 13:10:05;;;;;;;104.20;45.20;;;;;;;2.72;82.24;102278.75;129678;1261;115158;-65
2023/01/23 13:13:07;;;;;;;70.50;31.20;;;;;;;2.67;82.26;102280.07;130178;1262;115225;-65
2023/01/23 13:16:13;;;;;;;83.30;37.20;;;;;;;2.64;82.06;102276.16;130005;1260;114774;-66
2023/01/23 13:22:48;;;;;;;75.60;35.60;;;;;;;2.67;82.32;102279.72;130134;1259;115266;-66
2023/01/23 13:26:15;;;;;;;85.70;39.20;;;;;;;2.66;82.09;102280.23;130148;1259;115330;-66
2023/01/23 13:29:48;;;;;;;88.50;36.80;;;;;;;2.66;82.47;102283.58;129825;1263;115005;-66
2023/01/23 13:32:52;;;;;;;98.00;39.50;;;;;;;2.68;82.30;102285.90;130117;1257;114754;-66
2023/01/23 13:35:58;;;;;;;127.60;61.20;;;;;;;2.66;82.27;102287.13;129656;1257;127727;-65
2023/01/23 13:39:28;;;;;;;96.20;44.60;;;;;;;2.63;82.31;102285.84;129654;1263;115227;-65
2023/01/23 13:42:34;;;;;;;102.30;45.50;;;;;;;2.63;82.33;102288.13;130078;1256;114706;-66
2023/01/23 13:45:37;;;;;;;110.80;44.70;;;;;;;2.62;82.34;102284.77;129719;1256;115159;-65
2023/01/23 13:59:44;;;;;;;84.50;38.00;;;;;;;2.61;82.32;102288.27;129519;1264;115543;-65
2023/01/23 14:06:18;;;;;;;94.60;42.40;;;;;;;2.57;82.44;102291.39;129637;1278;114842;-65
2023/01/23 14:09:22;;;;;;;97.40;45.90;;;;;;;2.59;82.42;102297.77;129968;1272;114789;-66
2023/01/23 14:12:28;;;;;;;97.10;43.20;;;;;;;2.56;82.48;102295.08;130255;1278;115146;-66
2023/01/23 14:19:04;;;;;;;94.30;41.80;;;;;;;2.51;82.45;102305.92;130022;1260;115122;-69
2023/01/23 14:22:09;;;;;;;98.70;43.80;;;;;;;2.50;82.42;102308.90;130055;1272;114750;-66
2023/01/23 14:25:20;;;;;;;88.70;40.10;;;;;;;2.49;82.39;102310.48;129941;1279;128006;-69
2023/01/23 14:28:23;;;;;;;94.30;45.90;;;;;;;2.51;82.45;102312.45;130012;1261;115256;-67
2023/01/23 14:31:30;;;;;;;87.60;40.60;;;;;;;2.53;82.47;102314.95;129976;1262;114686;-67